createdAt,value
2017-11-01T00:00:51.647Z,80.30
2017-11-01T00:03:17.973Z,85.93
2017-11-01T00:05:45.051Z,87.03
2017-11-01T00:08:11.348Z,82.73
2017-11-01T00:10:37.665Z,81.60
2017-11-01T00:13:04.016Z,82.03
2017-11-01T00:15:31.061Z,79.90
2017-11-01T00:17:58.113Z,79.77
2017-11-01T00:20:25.211Z,77.40
2017-11-01T00:22:53.233Z,81.63
2017-11-01T00:25:20.270Z,81.97
2017-11-01T00:27:46.573Z,80.20
2017-11-01T00:30:12.860Z,80.93
2017-11-01T00:32:39.181Z,79.77
2017-11-01T00:35:05.483Z,77.30
2017-11-01T00:37:32.536Z,82.73
2017-11-01T00:39:58.837Z,68.97
2017-11-01T00:42:25.133Z,73.83
2017-11-01T00:44:51.430Z,72.63
2017-11-01T00:47:18.498Z,76.53
2017-11-01T00:49:44.796Z,78.87
2017-11-01T00:52:11.097Z,72.13
2017-11-01T00:54:37.401Z,75.33
2017-11-01T00:57:03.697Z,66.53
2017-11-01T00:59:30.734Z,60.90
2017-11-01T01:01:57.028Z,61.90
2017-11-01T01:04:23.358Z,60.83
2017-11-01T01:06:49.665Z,57.77
2017-11-01T01:09:15.991Z,59.20
2017-11-01T01:11:42.290Z,54.70
2017-11-01T01:14:08.600Z,53.17
2017-11-01T01:16:34.921Z,60.43
2017-11-01T01:19:01.231Z,57.60
2017-11-01T01:21:27.535Z,53.07
2017-11-01T01:23:54.563Z,53.87
2017-11-01T01:26:20.838Z,49.73
2017-11-01T01:28:47.168Z,52.00
2017-11-01T01:31:13.490Z,49.20
2017-11-01T01:33:39.795Z,46.50
2017-11-01T01:36:06.127Z,47.57
2017-11-01T01:38:32.462Z,47.67
2017-11-01T01:40:58.789Z,44.40
2017-11-01T01:43:25.114Z,45.10
2017-11-01T01:45:52.164Z,40.90
2017-11-01T01:48:18.512Z,42.10
2017-11-01T01:50:44.833Z,41.43
2017-11-01T01:53:11.136Z,43.93
2017-11-01T01:55:38.171Z,37.40
2017-11-01T01:58:05.217Z,39.63
2017-11-01T02:00:31.670Z,39.77
2017-11-01T02:03:00.880Z,37.17
2017-11-01T02:05:27.221Z,36.80
2017-11-01T02:07:53.541Z,37.97
2017-11-01T02:10:20.342Z,35.03
2017-11-01T02:12:46.710Z,33.80
2017-11-01T02:15:13.056Z,36.13
2017-11-01T02:17:39.395Z,36.10
2017-11-01T02:20:05.705Z,37.40
2017-11-01T02:22:32.035Z,35.90
2017-11-01T02:24:58.378Z,33.87
2017-11-01T02:27:24.701Z,34.00
2017-11-01T02:29:51.023Z,35.03
2017-11-01T02:32:17.383Z,31.27
2017-11-01T02:34:43.725Z,32.93
2017-11-01T02:37:10.064Z,35.20
2017-11-01T02:39:36.390Z,31.43
2017-11-01T02:42:02.729Z,33.17
2017-11-01T02:44:29.046Z,32.40
2017-11-01T02:46:55.387Z,32.70
2017-11-01T02:49:21.701Z,30.90
2017-11-01T02:51:48.047Z,28.90
2017-11-01T02:54:14.376Z,29.20
2017-11-01T02:56:40.724Z,28.30
2017-11-01T02:59:09.949Z,28.40
2017-11-01T03:01:36.315Z,27.73
2017-11-01T03:04:02.629Z,30.30
2017-11-01T03:06:28.946Z,29.67
2017-11-01T03:08:55.268Z,31.77
2017-11-01T03:11:21.598Z,30.00
2017-11-01T03:13:48.118Z,30.20
2017-11-01T03:16:14.592Z,29.77
2017-11-01T03:18:40.951Z,26.30
2017-11-01T03:21:07.261Z,25.97
2017-11-01T03:23:33.663Z,23.93
2017-11-01T03:25:59.993Z,25.57
2017-11-01T03:28:27.082Z,26.53
2017-11-01T03:30:53.417Z,24.47
2017-11-01T03:33:19.759Z,27.07
2017-11-01T03:35:46.073Z,24.47
2017-11-01T03:38:12.407Z,24.70
2017-11-01T03:40:38.721Z,22.43
2017-11-01T03:43:05.083Z,21.23
2017-11-01T03:45:31.412Z,20.40
2017-11-01T03:47:57.730Z,21.50
2017-11-01T03:50:24.172Z,20.83
2017-11-01T03:52:50.486Z,20.30
2017-11-01T03:55:16.837Z,20.27
2017-11-01T03:57:43.157Z,21.43
2017-11-01T04:00:09.511Z,23.37
2017-11-01T04:02:36.567Z,22.80
2017-11-01T04:05:02.887Z,22.10
2017-11-01T04:07:29.935Z,23.53
2017-11-01T04:09:56.264Z,24.00
2017-11-01T04:12:22.593Z,24.23
2017-11-01T04:14:48.934Z,20.63
2017-11-01T04:17:15.238Z,25.33
2017-11-01T04:19:41.578Z,23.83
2017-11-01T04:22:09.360Z,25.23
2017-11-01T04:24:35.727Z,23.67
2017-11-01T04:27:02.033Z,24.63
2017-11-01T04:29:28.344Z,25.90
2017-11-01T04:31:55.446Z,26.03
2017-11-01T04:34:21.755Z,25.83
2017-11-01T04:36:48.097Z,25.83
2017-11-01T04:39:14.398Z,30.50
2017-11-01T04:41:41.477Z,29.80
2017-11-01T04:44:07.804Z,33.70
2017-11-01T04:46:34.117Z,37.63
2017-11-01T04:49:03.314Z,40.93
2017-11-01T04:51:30.446Z,41.87
2017-11-01T04:53:57.536Z,43.33
2017-11-01T04:56:23.909Z,43.07
2017-11-01T04:58:50.215Z,50.30
2017-11-01T05:01:18.378Z,48.10
2017-11-01T05:03:44.721Z,48.80
2017-11-01T05:06:11.044Z,52.83
2017-11-01T05:08:41.375Z,51.30
2017-11-01T05:11:08.693Z,53.80
2017-11-01T05:13:40.018Z,58.03
2017-11-01T05:16:07.082Z,56.60
2017-11-01T05:18:33.406Z,52.60
2017-11-01T05:20:59.722Z,48.83
2017-11-01T05:23:26.789Z,56.83
2017-11-01T05:25:55.082Z,52.57
2017-11-01T05:28:22.389Z,54.47
2017-11-01T05:30:49.466Z,51.80
2017-11-01T05:33:15.821Z,55.03
2017-11-01T05:35:42.152Z,56.70
2017-11-01T05:38:08.478Z,49.73
2017-11-01T05:40:34.791Z,46.97
2017-11-01T05:43:01.126Z,49.90
2017-11-01T05:45:27.481Z,45.50
2017-11-01T05:47:53.835Z,51.83
2017-11-01T05:50:20.178Z,44.03
2017-11-01T05:52:47.284Z,43.03
2017-11-01T05:55:13.595Z,44.93
2017-11-01T05:57:39.913Z,43.13
2017-11-01T06:00:06.255Z,43.97
2017-11-01T06:02:32.578Z,42.60
2017-11-01T06:04:58.905Z,36.50
2017-11-01T06:07:25.225Z,40.47
2017-11-01T06:09:52.298Z,43.40
2017-11-01T06:12:18.642Z,41.73
2017-11-01T06:14:44.978Z,40.40
2017-11-01T06:17:11.300Z,47.80
2017-11-01T06:19:37.620Z,43.50
2017-11-01T06:22:03.933Z,47.10
2017-11-01T06:24:31.258Z,45.20
2017-11-01T06:26:59.049Z,47.07
2017-11-01T06:29:25.393Z,44.73
2017-11-01T06:31:51.719Z,44.63
2017-11-01T06:34:18.066Z,45.90
2017-11-01T06:36:46.289Z,49.43
2017-11-01T06:39:12.736Z,48.57
2017-11-01T06:41:39.215Z,48.10
2017-11-01T06:44:05.549Z,50.60
2017-11-01T06:46:31.901Z,47.97
2017-11-01T06:48:58.296Z,50.10
2017-11-01T06:51:24.685Z,48.87
2017-11-01T06:53:51.274Z,47.80
2017-11-01T06:56:17.610Z,45.47
2017-11-01T06:58:43.909Z,53.30
2017-11-01T07:01:11.809Z,49.23
2017-11-01T07:03:38.170Z,50.67
2017-11-01T07:06:04.497Z,49.97
2017-11-01T07:08:30.837Z,60.77
2017-11-01T07:10:57.172Z,54.37
2017-11-01T07:13:23.491Z,63.07
2017-11-01T07:15:51.351Z,59.83
2017-11-01T07:18:17.689Z,63.93
2017-11-01T07:20:44.018Z,62.50
2017-11-01T07:23:10.360Z,61.77
2017-11-01T07:25:36.661Z,65.27
2017-11-01T07:28:02.990Z,68.37
2017-11-01T07:30:29.326Z,66.47
2017-11-01T07:32:55.634Z,69.27
2017-11-01T07:35:21.921Z,59.77
2017-11-01T07:37:48.972Z,72.37
2017-11-01T07:40:15.286Z,65.37
2017-11-01T07:42:41.635Z,68.53
2017-11-01T07:45:08.679Z,75.47
2017-11-01T07:47:35.730Z,64.40
2017-11-01T07:50:02.790Z,63.37
2017-11-01T07:52:29.823Z,59.47
2017-11-01T07:54:56.877Z,59.23
2017-11-01T07:57:23.906Z,63.47
2017-11-01T07:59:50.251Z,60.00
2017-11-01T08:02:16.565Z,63.97
2017-11-01T08:04:42.880Z,66.20
2017-11-01T08:07:09.158Z,66.27
2017-11-01T08:09:35.476Z,66.23
2017-11-01T08:12:02.524Z,61.60
2017-11-01T08:14:28.852Z,69.13
2017-11-01T08:16:55.888Z,63.73
2017-11-01T08:19:22.946Z,72.47
2017-11-01T08:21:49.982Z,64.50
2017-11-01T08:24:16.297Z,60.70
2017-11-01T08:26:42.591Z,57.70
2017-11-01T08:29:08.919Z,65.40
2017-11-01T08:31:35.267Z,61.63
2017-11-01T08:34:01.571Z,70.13
2017-11-01T08:36:27.942Z,56.03
2017-11-01T08:38:55.007Z,59.20
2017-11-01T08:41:22.062Z,57.13
2017-11-01T08:43:48.382Z,60.13
2017-11-01T08:46:14.709Z,56.27
2017-11-01T08:48:41.030Z,56.07
2017-11-01T08:51:08.142Z,56.83
2017-11-01T08:53:34.473Z,54.50
2017-11-01T08:56:00.813Z,49.37
2017-11-01T08:58:27.173Z,49.10
2017-11-01T09:00:53.485Z,48.67
2017-11-01T09:03:19.841Z,45.37
2017-11-01T09:05:46.912Z,47.30
2017-11-01T09:08:13.950Z,49.90
2017-11-01T09:10:40.982Z,46.30
2017-11-01T09:13:08.125Z,49.83
2017-11-01T09:15:35.963Z,49.77
2017-11-01T09:18:02.520Z,49.80
2017-11-01T09:20:28.995Z,50.37
2017-11-01T09:22:55.317Z,45.60
2017-11-01T09:25:22.368Z,46.30
2017-11-01T09:27:48.712Z,48.23
2017-11-01T09:30:15.063Z,47.27
2017-11-01T09:32:42.173Z,51.27
2017-11-01T09:35:09.237Z,49.57
2017-11-01T09:37:35.560Z,48.00
2017-11-01T09:40:01.921Z,45.20
2017-11-01T09:42:29.052Z,46.33
2017-11-01T09:44:55.380Z,44.00
2017-11-01T09:47:21.684Z,46.70
2017-11-01T09:49:48.738Z,42.53
2017-11-01T09:52:15.811Z,44.77
2017-11-01T09:54:42.112Z,49.63
2017-11-01T09:57:08.507Z,45.07
2017-11-01T09:59:34.848Z,42.67
2017-11-01T10:02:01.168Z,46.80
2017-11-01T10:04:27.483Z,46.20
2017-11-01T10:06:53.810Z,42.57
2017-11-01T10:09:20.124Z,48.00
2017-11-01T10:11:46.441Z,45.17
2017-11-01T10:14:12.749Z,41.83
2017-11-01T10:16:39.827Z,41.93
2017-11-01T10:19:06.127Z,40.80
2017-11-01T10:21:33.216Z,39.83
2017-11-01T10:23:59.523Z,42.63
2017-11-01T10:26:25.849Z,42.30
2017-11-01T10:28:53.105Z,45.47
2017-11-01T10:31:19.431Z,44.90
2017-11-01T10:33:45.790Z,45.73
2017-11-01T10:36:12.099Z,44.43
2017-11-01T10:38:38.439Z,45.60
2017-11-01T10:41:04.772Z,44.33
2017-11-01T10:43:31.077Z,39.93
2017-11-01T10:45:57.412Z,46.10
2017-11-01T10:48:24.440Z,41.97
2017-11-01T10:50:50.785Z,42.57
2017-11-01T10:53:17.834Z,44.07
2017-11-01T10:55:44.860Z,45.00
2017-11-01T10:58:11.925Z,41.13
2017-11-01T11:00:39.001Z,43.00
2017-11-01T11:03:05.325Z,41.00
2017-11-01T11:05:31.641Z,47.37
2017-11-01T11:07:58.702Z,43.77
2017-11-01T11:10:25.007Z,43.00
2017-11-01T11:12:51.352Z,43.00
2017-11-01T11:15:17.661Z,43.67
2017-11-01T11:17:44.742Z,43.27
2017-11-01T11:20:11.073Z,41.57
2017-11-01T11:22:37.369Z,40.77
2017-11-01T11:25:04.475Z,38.77
2017-11-01T11:27:30.823Z,42.43
2017-11-01T11:29:57.919Z,45.87
2017-11-01T11:32:24.282Z,42.10
2017-11-01T11:34:50.662Z,45.63
2017-11-01T11:37:17.736Z,42.77
2017-11-01T11:39:44.072Z,42.47
2017-11-01T11:42:10.370Z,41.93
2017-11-01T11:44:37.490Z,41.80
2017-11-01T11:47:03.810Z,40.93
2017-11-01T11:49:30.151Z,40.93
2017-11-01T11:51:57.228Z,41.17
2017-11-01T11:54:23.609Z,40.70
2017-11-01T11:56:49.953Z,41.13
2017-11-01T11:59:16.309Z,39.00
2017-11-01T12:01:43.412Z,41.70
2017-11-01T12:04:09.792Z,38.07
2017-11-01T12:06:36.866Z,44.70
2017-11-01T12:09:03.237Z,40.60
2017-11-01T12:11:29.595Z,41.73
2017-11-01T12:13:56.670Z,41.73
2017-11-01T12:16:23.006Z,39.87
2017-11-01T12:18:49.332Z,40.27
2017-11-01T12:21:15.692Z,40.47
2017-11-01T12:23:42.014Z,39.50
2017-11-01T12:26:08.369Z,35.87
2017-11-01T12:28:34.717Z,35.87
2017-11-01T12:31:01.027Z,37.20
2017-11-01T12:33:27.316Z,41.33
2017-11-01T12:35:53.639Z,38.30
2017-11-01T12:38:19.957Z,39.53
2017-11-01T12:40:47.035Z,37.87
2017-11-01T12:43:13.359Z,39.00
2017-11-01T12:45:39.702Z,38.97
2017-11-01T12:48:06.031Z,36.27
2017-11-01T12:50:32.347Z,39.60
2017-11-01T12:52:58.676Z,35.80
2017-11-01T12:55:24.978Z,39.77
2017-11-01T12:57:52.040Z,40.90
2017-11-01T13:00:19.078Z,34.47
2017-11-01T13:02:46.138Z,36.87
2017-11-01T13:05:13.174Z,36.70
2017-11-01T13:07:40.238Z,33.33
2017-11-01T13:10:06.557Z,39.70
2017-11-01T13:12:33.599Z,36.90
2017-11-01T13:15:00.630Z,37.40
2017-11-01T13:17:26.942Z,42.97
2017-11-01T13:19:53.246Z,36.40
2017-11-01T13:22:19.585Z,38.77
2017-11-01T13:24:45.923Z,36.90
2017-11-01T13:27:12.281Z,38.13
2017-11-01T13:29:38.591Z,39.90
2017-11-01T13:32:04.920Z,43.90
2017-11-01T13:34:32.713Z,41.70
2017-11-01T13:36:59.757Z,40.10
2017-11-01T13:39:26.822Z,37.63
2017-11-01T13:41:53.855Z,37.47
2017-11-01T13:44:20.170Z,41.90
2017-11-01T13:46:46.471Z,41.83
2017-11-01T13:49:12.778Z,40.83
2017-11-01T13:51:39.091Z,39.60
2017-11-01T13:54:06.142Z,42.27
2017-11-01T13:56:32.455Z,40.90
2017-11-01T13:58:59.517Z,40.77
2017-11-01T14:01:26.570Z,43.50
2017-11-01T14:03:53.617Z,40.67
2017-11-01T14:06:19.922Z,48.30
2017-11-01T14:08:46.209Z,39.60
2017-11-01T14:11:12.486Z,45.57
2017-11-01T14:13:39.549Z,45.80
2017-11-01T14:16:06.579Z,39.10
2017-11-01T14:18:32.882Z,42.57
2017-11-01T14:20:59.180Z,41.80
2017-11-01T14:23:25.483Z,44.27
2017-11-01T14:25:52.525Z,46.70
2017-11-01T14:28:19.562Z,43.20
2017-11-01T14:30:46.237Z,47.90
2017-11-01T14:33:12.592Z,44.10
2017-11-01T14:35:38.937Z,49.80
2017-11-01T14:38:05.238Z,44.07
2017-11-01T14:40:31.542Z,48.73
2017-11-01T14:42:57.931Z,40.77
2017-11-01T14:45:24.237Z,43.17
2017-11-01T14:47:50.538Z,41.33
2017-11-01T14:50:16.834Z,45.53
2017-11-01T14:52:43.898Z,43.83
2017-11-01T14:55:10.234Z,42.27
2017-11-01T14:57:37.278Z,42.50
2017-11-01T15:00:04.334Z,44.80
2017-11-01T15:02:30.653Z,42.57
2017-11-01T15:04:57.690Z,41.63
2017-11-01T15:07:24.739Z,44.17
2017-11-01T15:09:51.773Z,45.87
2017-11-01T15:12:18.094Z,46.67
2017-11-01T15:14:45.183Z,42.60
2017-11-01T15:17:11.507Z,43.10
2017-11-01T15:19:37.816Z,46.50
2017-11-01T15:22:04.138Z,43.40
2017-11-01T15:24:30.430Z,47.87
2017-11-01T15:26:56.738Z,46.33
2017-11-01T15:29:23.022Z,52.10
2017-11-01T15:31:49.349Z,43.87
2017-11-01T15:34:15.649Z,48.77
2017-11-01T15:36:41.962Z,44.40
2017-11-01T15:39:08.254Z,47.30
2017-11-01T15:41:34.549Z,48.03
2017-11-01T15:44:00.856Z,47.70
2017-11-01T15:46:27.209Z,45.93
2017-11-01T15:48:53.528Z,47.40
2017-11-01T15:51:19.883Z,44.13
2017-11-01T15:53:46.178Z,50.77
2017-11-01T15:56:12.473Z,48.70
2017-11-01T15:58:39.519Z,49.47
2017-11-01T16:01:06.545Z,48.70
2017-11-01T16:03:39.927Z,44.77
2017-11-01T16:06:06.237Z,51.80
2017-11-01T16:08:32.565Z,53.20
2017-11-01T16:10:58.846Z,49.20
2017-11-01T16:13:25.917Z,48.37
2017-11-01T16:15:52.962Z,50.53
2017-11-01T16:18:19.271Z,48.80
2017-11-01T16:20:45.569Z,48.30
2017-11-01T16:23:11.896Z,55.23
2017-11-01T16:25:38.233Z,54.97
2017-11-01T16:28:04.545Z,55.67
2017-11-01T16:30:30.837Z,55.83
2017-11-01T16:32:57.886Z,53.90
2017-11-01T16:35:24.907Z,52.33
2017-11-01T16:37:52.679Z,50.97
2017-11-01T16:40:18.977Z,51.00
2017-11-01T16:42:45.983Z,56.70
2017-11-01T16:45:12.383Z,56.67
2017-11-01T16:47:40.169Z,54.93
2017-11-01T16:50:07.199Z,60.57
2017-11-01T16:52:34.292Z,58.60
2017-11-01T16:55:00.590Z,56.10
2017-11-01T16:57:27.647Z,59.47
2017-11-01T16:59:53.954Z,62.27
2017-11-01T17:02:21.014Z,67.97
2017-11-01T17:04:47.342Z,62.27
2017-11-01T17:07:14.385Z,70.67
2017-11-01T17:09:41.513Z,61.40
2017-11-01T17:12:07.786Z,63.73
2017-11-01T17:14:34.098Z,61.00
2017-11-01T17:17:00.405Z,66.13
2017-11-01T17:19:27.456Z,65.40
2017-11-01T17:21:53.743Z,62.37
2017-11-01T17:24:20.036Z,65.33
2017-11-01T17:26:47.068Z,65.60
2017-11-01T17:29:13.380Z,66.30
2017-11-01T17:31:40.438Z,60.93
2017-11-01T17:34:06.777Z,68.97
2017-11-01T17:36:33.831Z,64.63
2017-11-01T17:39:00.151Z,60.40
2017-11-01T17:41:27.202Z,62.47
2017-11-01T17:43:54.253Z,61.30
2017-11-01T17:46:21.307Z,61.30
2017-11-01T17:48:47.638Z,69.97
2017-11-01T17:51:13.944Z,59.80
2017-11-01T17:53:40.239Z,56.43
2017-11-01T17:56:06.537Z,57.67
2017-11-01T17:58:32.870Z,58.70
2017-11-01T18:00:59.184Z,62.50
2017-11-01T18:03:26.231Z,60.20
2017-11-01T18:05:53.257Z,60.77
2017-11-01T18:08:20.309Z,58.03
2017-11-01T18:10:47.373Z,54.23
2017-11-01T18:13:14.407Z,63.93
2017-11-01T18:15:40.735Z,62.70
2017-11-01T18:18:07.771Z,57.00
2017-11-01T18:20:34.845Z,61.33
2017-11-01T18:23:01.150Z,56.70
2017-11-01T18:25:27.462Z,57.03
2017-11-01T18:27:53.746Z,58.10
2017-11-01T18:30:20.041Z,59.63
2017-11-01T18:32:46.336Z,61.83
2017-11-01T18:35:12.626Z,61.47
2017-11-01T18:37:38.955Z,61.63
2017-11-01T18:40:05.254Z,58.37
2017-11-01T18:42:31.840Z,60.93
2017-11-01T18:44:58.156Z,65.87
2017-11-01T18:47:24.495Z,66.43
2017-11-01T18:49:50.818Z,58.60
2017-11-01T18:52:17.134Z,59.37
2017-11-01T18:54:44.291Z,60.23
2017-11-01T18:57:11.346Z,62.77
2017-11-01T18:59:37.643Z,55.47
2017-11-01T19:02:04.675Z,54.67
2017-11-01T19:04:30.966Z,53.83
2017-11-01T19:06:57.263Z,61.50
2017-11-01T19:09:24.292Z,55.70
2017-11-01T19:11:51.353Z,56.90
2017-11-01T19:14:18.384Z,58.37
2017-11-01T19:16:44.692Z,57.50
2017-11-01T19:19:10.990Z,57.47
2017-11-01T19:21:37.292Z,62.97
2017-11-01T19:24:04.324Z,58.60
2017-11-01T19:26:30.637Z,55.90
2017-11-01T19:28:56.951Z,60.00
2017-11-01T19:31:23.242Z,56.80
2017-11-01T19:33:49.531Z,54.90
2017-11-01T19:36:15.854Z,57.33
2017-11-01T19:38:42.191Z,50.90
2017-11-01T19:41:08.518Z,54.27
2017-11-01T19:43:35.702Z,53.10
2017-11-01T19:46:02.738Z,50.60
2017-11-01T19:48:29.856Z,55.30
2017-11-01T19:50:56.332Z,48.53
2017-11-01T19:53:23.675Z,47.10
2017-11-01T19:55:49.995Z,51.00
2017-11-01T19:58:16.293Z,53.10
2017-11-01T20:00:42.594Z,50.80
2017-11-01T20:03:08.905Z,53.37
2017-11-01T20:05:35.217Z,50.20
2017-11-01T20:08:01.574Z,43.37
2017-11-01T20:10:27.874Z,49.10
2017-11-01T20:12:54.185Z,43.57
2017-11-01T20:15:20.497Z,44.67
2017-11-01T20:17:46.818Z,45.87
2017-11-01T20:20:13.098Z,41.13
2017-11-01T20:22:40.253Z,46.20
2017-11-01T20:25:06.582Z,47.00
2017-11-01T20:27:33.761Z,42.43
2017-11-01T20:30:00.155Z,44.70
2017-11-01T20:32:26.515Z,53.63
2017-11-01T20:34:53.059Z,50.73
2017-11-01T20:37:19.416Z,43.40
2017-11-01T20:39:45.718Z,50.47
2017-11-01T20:42:12.193Z,48.40
2017-11-01T20:44:39.402Z,52.60
2017-11-01T20:47:05.695Z,47.10
2017-11-01T20:49:31.989Z,51.97
2017-11-01T20:51:58.514Z,52.90
2017-11-01T20:54:25.052Z,47.50
2017-11-01T20:56:52.972Z,50.30
2017-11-01T20:59:19.372Z,49.30
2017-11-01T21:01:45.700Z,50.97
2017-11-01T21:04:12.237Z,50.73
2017-11-01T21:06:38.697Z,52.37
2017-11-01T21:09:05.768Z,52.20
2017-11-01T21:11:32.866Z,49.47
2017-11-01T21:13:59.650Z,48.00
2017-11-01T21:16:26.847Z,55.00
2017-11-01T21:18:53.803Z,48.70
2017-11-01T21:21:20.183Z,53.80
2017-11-01T21:23:46.533Z,52.50
2017-11-01T21:26:12.821Z,46.17
2017-11-01T21:28:39.123Z,46.80
2017-11-01T21:31:05.432Z,50.50
2017-11-01T21:33:31.854Z,52.80
2017-11-01T21:35:58.191Z,56.00
2017-11-01T21:38:24.511Z,54.00
2017-11-01T21:40:50.845Z,53.77
2017-11-01T21:43:17.179Z,54.10
2017-11-01T21:45:43.509Z,57.00
2017-11-01T21:48:09.845Z,59.47
2017-11-01T21:50:36.227Z,57.20
2017-11-01T21:53:03.304Z,61.73
2017-11-01T21:55:29.654Z,62.03
2017-11-01T21:57:55.981Z,59.90
2017-11-01T22:00:22.328Z,59.23
2017-11-01T22:02:48.680Z,60.00
2017-11-01T22:05:14.992Z,60.73
2017-11-01T22:07:41.330Z,65.23
2017-11-01T22:10:07.690Z,64.90
2017-11-01T22:12:33.982Z,66.20
2017-11-01T22:15:00.287Z,62.73
2017-11-01T22:17:26.678Z,58.60
2017-11-01T22:19:53.804Z,62.03
2017-11-01T22:22:20.134Z,66.03
2017-11-01T22:24:46.414Z,63.37
2017-11-01T22:27:13.536Z,64.47
2017-11-01T22:29:39.839Z,63.73
2017-11-01T22:32:06.150Z,66.53
2017-11-01T22:34:32.450Z,65.90
2017-11-01T22:36:58.753Z,70.43
2017-11-01T22:39:26.539Z,67.57
2017-11-01T22:41:53.610Z,66.70
2017-11-01T22:44:19.953Z,61.90
2017-11-01T22:46:46.252Z,61.53
2017-11-01T22:49:13.282Z,65.47
2017-11-01T22:51:40.326Z,70.60
2017-11-01T22:54:07.474Z,68.03
2017-11-01T22:56:33.811Z,65.60
2017-11-01T22:59:00.843Z,61.80
2017-11-01T23:01:27.148Z,69.43
2017-11-01T23:03:53.461Z,55.73
2017-11-01T23:06:19.757Z,43.90
2017-11-01T23:08:46.859Z,32.60
2017-11-01T23:11:13.353Z,27.67
2017-11-01T23:13:39.676Z,28.77
2017-11-01T23:16:05.987Z,33.00
2017-11-01T23:18:33.052Z,30.53
2017-11-01T23:21:00.067Z,34.80
2017-11-01T23:23:26.374Z,38.47
2017-11-01T23:25:52.710Z,49.47
2017-11-01T23:28:19.041Z,46.60
2017-11-01T23:30:45.348Z,49.90
2017-11-01T23:33:11.661Z,46.90
2017-11-01T23:35:37.963Z,43.73
2017-11-01T23:38:04.279Z,50.80
2017-11-01T23:40:30.598Z,46.23
2017-11-01T23:42:56.893Z,44.87
2017-11-01T23:45:23.199Z,46.60
2017-11-01T23:47:49.531Z,43.63
2017-11-01T23:50:15.882Z,41.43
2017-11-01T23:52:42.197Z,38.30
2017-11-01T23:55:09.230Z,37.53
2017-11-01T23:57:35.551Z,36.90
